createdAt,value
2023-04-15T00:01:49.993Z,61.30
2023-04-15T00:04:18.493Z,64.51
2023-04-15T00:06:53.469Z,65.63
2023-04-15T00:09:21.648Z,63.27
2023-04-15T00:11:50.689Z,61.48
2023-04-15T00:14:18.595Z,58.88
2023-04-15T00:16:46.633Z,57.97
2023-04-15T00:19:14.649Z,59.52
2023-04-15T00:21:42.582Z,64.29
2023-04-15T00:24:10.601Z,66.25
2023-04-15T00:26:38.634Z,63.82
2023-04-15T00:29:06.737Z,62.00
2023-04-15T00:31:34.644Z,59.47
2023-04-15T00:34:02.670Z,58.53
2023-04-15T00:36:31.857Z,60.01
2023-04-15T00:38:59.957Z,63.96
2023-04-15T00:41:28.128Z,65.23
2023-04-15T00:43:56.050Z,63.44
2023-04-15T00:46:27.127Z,61.28
2023-04-15T00:48:55.420Z,58.55
2023-04-15T00:51:23.604Z,58.47
2023-04-15T00:53:52.155Z,59.96
2023-04-15T00:56:24.480Z,64.69
2023-04-15T00:58:52.586Z,65.54
2023-04-15T01:01:26.317Z,62.57
2023-04-15T01:03:56.671Z,58.86
2023-04-15T01:06:24.899Z,57.72
2023-04-15T01:08:54.274Z,58.95
2023-04-15T01:11:24.317Z,64.17
2023-04-15T01:13:53.043Z,64.93
2023-04-15T01:16:21.406Z,62.12
2023-04-15T01:18:49.522Z,57.41
2023-04-15T01:21:18.318Z,57.03
2023-04-15T01:23:49.183Z,57.83
2023-04-15T01:26:17.732Z,60.17
2023-04-15T01:28:47.099Z,65.12
2023-04-15T01:31:15.605Z,65.96
2023-04-15T01:33:43.959Z,61.75
2023-04-15T01:36:11.847Z,57.56
2023-04-15T01:38:39.973Z,57.07
2023-04-15T01:41:08.736Z,58.83
2023-04-15T01:43:37.425Z,59.44
2023-04-15T01:46:06.401Z,64.55
2023-04-15T01:48:34.675Z,65.71
2023-04-15T01:51:05.137Z,62.49
2023-04-15T01:53:33.696Z,60.43
2023-04-15T01:56:01.618Z,57.20
2023-04-15T01:58:29.575Z,56.24
2023-04-15T02:00:57.693Z,57.51
2023-04-15T02:03:25.871Z,59.13
2023-04-15T02:05:53.954Z,63.15
2023-04-15T02:08:22.693Z,64.98
2023-04-15T02:10:51.007Z,61.82
2023-04-15T02:13:19.164Z,57.18
2023-04-15T02:15:48.885Z,56.67
2023-04-15T02:18:17.175Z,58.30
2023-04-15T02:20:45.616Z,59.12
2023-04-15T02:23:13.762Z,63.75
2023-04-15T02:25:53.907Z,65.59
2023-04-15T02:28:22.470Z,62.40
2023-04-15T02:30:54.566Z,57.87
2023-04-15T02:33:22.626Z,56.43
2023-04-15T02:35:50.957Z,57.79
2023-04-15T02:38:18.907Z,58.77
2023-04-15T02:40:46.845Z,62.54
2023-04-15T02:43:14.779Z,64.89
2023-04-15T02:45:43.879Z,62.76
2023-04-15T02:48:11.943Z,60.67
2023-04-15T02:50:40.837Z,57.02
2023-04-15T02:53:10.596Z,56.43
2023-04-15T02:55:38.539Z,59.27
2023-04-15T02:58:07.692Z,63.16
2023-04-15T03:00:35.657Z,65.14
2023-04-15T03:03:05.339Z,61.38
2023-04-15T03:05:33.665Z,58.91
2023-04-15T03:08:03.262Z,58.05
2023-04-15T03:10:31.736Z,59.26
2023-04-15T03:12:59.711Z,63.34
2023-04-15T03:15:28.068Z,65.60
2023-04-15T03:17:56.647Z,62.77
2023-04-15T03:20:25.110Z,60.39
2023-04-15T03:22:53.330Z,56.46
2023-04-15T03:25:22.029Z,55.70
2023-04-15T03:27:49.891Z,56.77
2023-04-15T03:30:18.918Z,57.91
2023-04-15T03:32:47.113Z,58.84
2023-04-15T03:35:15.131Z,63.74
2023-04-15T03:37:42.973Z,65.27
2023-04-15T03:40:11.643Z,61.72
2023-04-15T03:42:39.493Z,57.23
2023-04-15T03:45:07.906Z,57.14
2023-04-15T03:47:36.022Z,60.34
2023-04-15T03:50:04.440Z,62.36
2023-04-15T03:52:32.319Z,63.23
2023-04-15T03:55:00.331Z,63.57
2023-04-15T03:57:28.258Z,60.37
2023-04-15T03:59:56.350Z,57.22
2023-04-15T04:02:24.496Z,57.36
2023-04-15T04:04:53.303Z,60.71
2023-04-15T04:07:23.811Z,63.49
2023-04-15T04:09:51.725Z,64.41
2023-04-15T04:12:19.697Z,62.00
2023-04-15T04:14:48.435Z,57.58
2023-04-15T04:17:16.282Z,59.13
2023-04-15T04:19:44.194Z,59.07
2023-04-15T04:22:12.267Z,63.90
2023-04-15T04:24:40.409Z,66.31
2023-04-15T04:27:08.500Z,63.15
2023-04-15T04:29:36.402Z,60.96
2023-04-15T04:32:04.354Z,57.39
2023-04-15T04:34:32.683Z,57.62
2023-04-15T04:37:00.848Z,61.44
2023-04-15T04:39:28.780Z,64.49
2023-04-15T04:41:56.639Z,64.47
2023-04-15T04:44:24.448Z,61.84
2023-04-15T04:46:52.474Z,58.13
2023-04-15T04:49:20.525Z,57.64
2023-04-15T04:51:49.024Z,58.55
2023-04-15T04:54:17.732Z,62.56
2023-04-15T04:56:45.661Z,65.69
2023-04-15T04:59:14.102Z,61.63
2023-04-15T05:01:42.172Z,59.24
2023-04-15T05:04:10.194Z,57.78
2023-04-15T05:06:38.320Z,62.21
2023-04-15T05:09:06.375Z,65.52
2023-04-15T05:11:34.353Z,64.72
2023-04-15T05:14:02.473Z,62.27
2023-04-15T05:16:30.447Z,58.12
2023-04-15T05:18:58.385Z,56.26
2023-04-15T05:21:27.787Z,58.28
2023-04-15T05:23:55.758Z,61.76
2023-04-15T05:26:24.941Z,64.65
2023-04-15T05:28:52.860Z,62.00
2023-04-15T05:31:21.256Z,59.29
2023-04-15T05:33:49.265Z,56.23
2023-04-15T05:36:17.483Z,58.00
2023-04-15T05:38:45.463Z,60.02
2023-04-15T05:41:17.098Z,62.95
2023-04-15T05:43:46.583Z,60.53
2023-04-15T05:46:14.497Z,58.04
2023-04-15T05:48:42.489Z,58.08
2023-04-15T05:51:10.596Z,60.71
2023-04-15T05:53:38.939Z,61.38
2023-04-15T05:56:07.170Z,63.16
2023-04-15T05:58:35.061Z,62.65
2023-04-15T06:01:03.620Z,56.45
2023-04-15T06:03:31.899Z,57.36
2023-04-15T06:06:01.026Z,59.39
2023-04-15T06:08:29.067Z,60.21
2023-04-15T06:10:58.747Z,62.29
2023-04-15T06:13:27.291Z,62.74
2023-04-15T06:15:55.574Z,57.76
2023-04-15T06:18:24.512Z,57.36
2023-04-15T06:20:52.512Z,58.82
2023-04-15T06:23:20.496Z,60.08
2023-04-15T06:25:48.664Z,61.27
2023-04-15T06:28:16.700Z,61.35
2023-04-15T06:30:44.709Z,62.45
2023-04-15T06:33:12.757Z,58.33
2023-04-15T06:35:41.168Z,55.84
2023-04-15T06:38:09.040Z,56.47
2023-04-15T06:40:37.017Z,56.54
2023-04-15T06:43:05.038Z,57.75
2023-04-15T06:45:33.357Z,58.39
2023-04-15T06:48:01.377Z,59.57
2023-04-15T06:50:29.377Z,59.54
2023-04-15T06:52:57.446Z,60.41
2023-04-15T06:55:25.312Z,60.59
2023-04-15T06:57:53.415Z,60.44
2023-04-15T07:00:21.450Z,60.42
2023-04-15T07:02:49.482Z,59.66
2023-04-15T07:05:17.459Z,59.55
2023-04-15T07:07:45.457Z,59.64
2023-04-15T07:10:15.060Z,59.53
2023-04-15T07:12:43.013Z,59.88
2023-04-15T07:15:11.280Z,60.12
2023-04-15T07:17:39.347Z,59.73
2023-04-15T07:20:08.136Z,59.61
2023-04-15T07:22:36.074Z,59.33
2023-04-15T07:25:04.446Z,59.13
2023-04-15T07:27:32.790Z,59.20
2023-04-15T07:30:01.098Z,58.86
2023-04-15T07:32:29.058Z,59.34
2023-04-15T07:34:57.069Z,58.51
2023-04-15T07:37:25.146Z,57.90
2023-04-15T07:39:53.836Z,57.21
2023-04-15T07:42:22.306Z,57.57
2023-04-15T07:44:50.235Z,57.65
2023-04-15T07:47:18.166Z,55.95
2023-04-15T07:49:46.580Z,56.44
2023-04-15T07:52:14.493Z,56.00
2023-04-15T07:54:42.556Z,56.89
2023-04-15T07:57:10.697Z,55.75
2023-04-15T07:59:38.637Z,55.16
2023-04-15T08:02:07.046Z,55.64
2023-04-15T08:04:35.319Z,54.92
2023-04-15T08:07:04.982Z,55.36
2023-04-15T08:09:33.029Z,54.82
2023-04-15T08:12:01.076Z,53.95
2023-04-15T08:14:29.495Z,54.18
2023-04-15T08:16:57.431Z,53.43
2023-04-15T08:19:25.386Z,52.73
2023-04-15T08:21:53.339Z,51.79
2023-04-15T08:24:21.663Z,50.98
2023-04-15T08:26:49.569Z,50.45
2023-04-15T08:29:17.503Z,51.27
2023-04-15T08:31:45.771Z,49.43
2023-04-15T08:34:13.719Z,48.53
2023-04-15T08:36:43.356Z,47.57
2023-04-15T08:39:11.414Z,47.61
2023-04-15T08:42:07.307Z,49.47
2023-04-15T08:44:37.068Z,48.58
2023-04-15T08:47:08.751Z,48.70
2023-04-15T08:49:44.214Z,48.28
2023-04-15T08:52:12.418Z,49.45
2023-04-15T08:54:40.511Z,49.53
2023-04-15T08:57:08.784Z,49.80
2023-04-15T08:59:36.713Z,50.11
2023-04-15T09:02:04.788Z,49.84
2023-04-15T09:04:33.957Z,50.16
2023-04-15T09:07:02.285Z,50.93
2023-04-15T09:09:30.260Z,51.57
2023-04-15T09:11:58.242Z,51.29
2023-04-15T09:14:26.164Z,51.95
2023-04-15T09:17:02.566Z,51.97
2023-04-15T09:19:31.648Z,51.74
2023-04-15T09:22:00.363Z,52.04
2023-04-15T09:24:39.458Z,52.38
2023-04-15T09:27:07.481Z,52.79
2023-04-15T09:29:35.446Z,52.65
2023-04-15T09:32:11.465Z,52.51
2023-04-15T09:34:39.358Z,51.33
2023-04-15T09:37:08.172Z,51.31
2023-04-15T09:39:47.454Z,51.86
2023-04-15T09:42:17.168Z,52.01
2023-04-15T09:44:45.553Z,52.11
2023-04-15T09:47:31.627Z,51.42
2023-04-15T09:50:01.966Z,50.30
2023-04-15T09:52:30.775Z,50.01
2023-04-15T09:54:59.947Z,50.05
2023-04-15T09:57:36.733Z,49.51
2023-04-15T10:00:08.294Z,49.28
2023-04-15T10:02:40.157Z,48.66
2023-04-15T10:05:12.293Z,49.19
2023-04-15T10:07:43.547Z,47.86
2023-04-15T10:10:11.783Z,47.88
2023-04-15T10:12:41.759Z,48.55
2023-04-15T10:15:21.838Z,47.52
2023-04-15T10:17:51.221Z,47.42
2023-04-15T10:20:19.830Z,47.12
2023-04-15T10:22:48.867Z,47.70
2023-04-15T10:25:16.992Z,47.89
2023-04-15T10:27:45.606Z,47.52
2023-04-15T10:30:13.826Z,47.83
2023-04-15T10:32:42.755Z,47.21
2023-04-15T10:35:12.090Z,47.18
2023-04-15T10:37:40.121Z,45.58
2023-04-15T10:40:31.734Z,44.52
2023-04-15T10:43:02.199Z,45.00
2023-04-15T10:45:35.647Z,45.55
2023-04-15T10:48:07.459Z,44.64
2023-04-15T10:50:37.803Z,43.71
2023-04-15T10:53:05.927Z,43.31
2023-04-15T10:55:35.402Z,43.69
2023-04-15T10:58:03.411Z,43.71
2023-04-15T11:00:33.188Z,43.25
2023-04-15T11:03:10.342Z,41.75
2023-04-15T11:05:41.629Z,42.81
2023-04-15T11:09:12.050Z,43.36
2023-04-15T11:12:07.236Z,42.62
2023-04-15T11:14:41.644Z,43.06
2023-04-15T11:17:09.741Z,44.22
2023-04-15T11:40:28.793Z,43.62
2023-04-15T11:43:12.566Z,41.96
2023-04-15T11:45:59.021Z,42.19
2023-04-15T11:48:27.775Z,43.06
2023-04-15T11:50:56.309Z,43.25
2023-04-15T11:53:24.012Z,42.39
2023-04-15T11:55:52.699Z,42.86
2023-04-15T11:58:24.666Z,42.48
2023-04-15T12:00:52.686Z,42.07
2023-04-15T12:03:19.776Z,41.87
2023-04-15T12:06:05.696Z,41.78
2023-04-15T12:08:50.877Z,42.07
2023-04-15T12:11:18.283Z,42.10
2023-04-15T12:13:49.268Z,42.13
2023-04-15T12:16:19.394Z,41.92
2023-04-15T12:18:47.696Z,42.01
2023-04-15T12:21:14.999Z,42.00
2023-04-15T12:23:52.682Z,41.51
2023-04-15T12:26:30.739Z,41.40
2023-04-15T12:29:07.055Z,41.71
2023-04-15T12:31:35.517Z,40.89
2023-04-15T12:34:03.613Z,39.98
2023-04-15T12:36:35.693Z,39.98
2023-04-15T12:39:06.315Z,39.50
2023-04-15T12:41:33.056Z,38.82
2023-04-15T12:43:59.981Z,37.84
2023-04-15T12:46:27.237Z,37.30
2023-04-15T12:48:53.961Z,36.46
2023-04-15T12:51:23.389Z,36.82
2023-04-15T12:53:50.392Z,37.27
2023-04-15T12:56:17.558Z,37.59
2023-04-15T12:58:44.159Z,37.94
2023-04-15T13:01:11.132Z,37.80
2023-04-15T13:03:37.840Z,37.67
2023-04-15T13:06:05.454Z,37.11
2023-04-15T13:08:32.539Z,37.59
2023-04-15T13:10:59.463Z,37.33
2023-04-15T13:13:26.789Z,36.13
2023-04-15T13:15:53.353Z,36.06
2023-04-15T13:18:20.035Z,35.21
2023-04-15T13:20:46.572Z,35.08
2023-04-15T13:23:13.211Z,35.03
2023-04-15T13:25:40.514Z,35.05
2023-04-15T13:28:07.070Z,34.80
2023-04-15T13:30:33.667Z,36.06
2023-04-15T13:33:00.201Z,35.26
2023-04-15T13:35:26.742Z,35.58
2023-04-15T13:37:54.368Z,35.38
2023-04-15T13:40:21.120Z,36.32
2023-04-15T13:42:48.066Z,36.96
2023-04-15T13:45:15.624Z,37.16
2023-04-15T14:05:12.634Z,39.05
2023-04-15T14:24:09.821Z,38.88
2023-04-15T14:26:37.760Z,37.98
2023-04-15T14:29:05.951Z,37.93
2023-04-15T14:36:00.131Z,37.52
2023-04-15T14:38:28.224Z,36.72
2023-04-15T14:40:56.246Z,37.23
2023-04-15T14:43:24.280Z,37.40
2023-04-15T14:45:52.308Z,37.48
2023-04-15T14:48:20.511Z,37.61
2023-04-15T17:12:16.313Z,64.56
2023-04-15T17:14:44.507Z,62.57
2023-04-15T17:35:23.615Z,66.49
2023-04-15T17:37:51.703Z,69.39
2023-04-15T17:40:21.441Z,65.53
2023-04-15T17:42:49.532Z,61.99
2023-04-15T17:45:17.654Z,55.15
2023-04-15T17:47:46.182Z,54.65
2023-04-15T17:50:15.065Z,56.90
2023-04-15T17:52:44.192Z,58.64
2023-04-15T17:55:12.668Z,62.42
2023-04-15T17:57:41.040Z,67.05
2023-04-15T18:00:10.808Z,64.55
2023-04-15T18:02:41.907Z,59.21
2023-04-15T18:05:10.600Z,54.12
2023-04-15T18:07:38.710Z,55.58
2023-04-15T18:10:08.349Z,58.30
2023-04-15T18:12:39.013Z,62.28
2023-04-15T18:15:10.471Z,64.82
2023-04-15T18:17:38.531Z,64.46
2023-04-15T18:20:07.444Z,58.82
2023-04-15T18:22:35.719Z,61.31
2023-04-15T18:25:04.704Z,63.94
2023-04-15T18:27:34.623Z,62.92
2023-04-15T18:30:02.630Z,61.10
2023-04-15T18:32:32.947Z,60.64
2023-04-15T18:35:02.137Z,58.17
2023-04-15T18:37:30.307Z,57.97
2023-04-15T18:39:59.025Z,59.37
2023-04-15T18:42:27.418Z,63.88
2023-04-15T18:44:55.478Z,66.78
2023-04-15T18:47:27.016Z,62.80
2023-04-15T18:49:55.664Z,58.99
2023-04-15T18:52:23.631Z,57.95
2023-04-15T18:54:52.022Z,59.23
2023-04-15T18:57:24.984Z,63.48
2023-04-15T19:00:00.045Z,65.90
2023-04-15T19:02:28.463Z,61.69
2023-04-15T19:04:57.345Z,58.08
2023-04-15T19:07:25.455Z,57.43
2023-04-15T19:09:53.688Z,58.98
2023-04-15T19:12:21.624Z,63.61
2023-04-15T19:14:49.942Z,66.77
2023-04-15T19:17:17.921Z,63.52
2023-04-15T19:19:46.174Z,61.00
2023-04-15T19:22:14.417Z,58.08
2023-04-15T19:24:43.305Z,57.10
2023-04-15T19:27:11.324Z,59.30
2023-04-15T19:29:39.571Z,63.43
2023-04-15T19:32:07.665Z,66.27
2023-04-15T19:34:36.001Z,63.66
2023-04-15T19:37:03.971Z,61.40
2023-04-15T19:39:32.164Z,58.23
2023-04-15T19:42:00.393Z,57.58
2023-04-15T19:44:28.608Z,61.39
2023-04-15T19:46:56.937Z,64.07
2023-04-15T19:49:26.754Z,65.45
2023-04-15T19:51:54.658Z,61.57
2023-04-15T19:54:22.896Z,62.22
2023-04-15T19:56:50.893Z,60.76
2023-04-15T19:59:18.913Z,57.99
2023-04-15T20:01:47.018Z,58.96
2023-04-15T20:04:15.141Z,60.22
2023-04-15T20:06:43.128Z,64.59
2023-04-15T20:09:11.619Z,66.69
2023-04-15T20:12:09.986Z,64.79
2023-04-15T20:14:27.807Z,62.78
2023-04-15T20:16:55.703Z,59.42
2023-04-15T20:19:23.647Z,58.52
2023-04-15T20:21:52.699Z,60.59
2023-04-15T20:24:21.660Z,66.11
2023-04-15T20:26:49.775Z,67.74
2023-04-15T20:29:18.204Z,65.34
2023-04-15T20:31:46.456Z,62.94
2023-04-15T20:34:14.926Z,59.36
2023-04-15T20:36:42.915Z,57.11
2023-04-15T20:39:10.885Z,59.27
2023-04-15T20:41:38.817Z,64.16
2023-04-15T20:44:06.725Z,66.79
2023-04-15T20:46:34.706Z,63.85
2023-04-15T20:49:02.794Z,61.47
2023-04-15T20:51:37.360Z,57.82
2023-04-15T20:54:06.231Z,56.68
2023-04-15T20:56:34.088Z,57.74
2023-04-15T20:59:02.563Z,62.24
2023-04-15T21:01:30.648Z,64.72
2023-04-15T21:03:59.539Z,61.55
2023-04-15T21:06:27.984Z,61.96
2023-04-15T21:08:55.951Z,60.85
2023-04-15T21:11:43.160Z,57.98
2023-04-15T21:14:12.516Z,57.76
2023-04-15T21:16:41.211Z,63.41
2023-04-15T21:19:09.832Z,64.89
2023-04-15T21:21:39.769Z,60.27
2023-04-15T21:24:10.381Z,55.40
2023-04-15T21:26:38.553Z,55.95
2023-04-15T21:29:08.692Z,57.23
2023-04-15T21:31:38.764Z,60.57
2023-04-15T21:34:06.804Z,65.67
2023-04-15T21:36:35.312Z,66.12
2023-04-15T21:39:03.468Z,63.13
2023-04-15T21:41:32.800Z,61.68
2023-04-15T21:44:00.976Z,58.23
2023-04-15T21:46:32.837Z,56.78
2023-04-15T21:49:03.786Z,58.31
2023-04-15T21:51:32.801Z,59.98
2023-04-15T21:54:00.788Z,65.23
2023-04-15T21:56:28.770Z,67.44
2023-04-15T21:58:57.661Z,65.74
2023-04-15T22:01:26.677Z,63.48
2023-04-15T22:03:55.030Z,61.79
2023-04-15T22:06:23.212Z,58.74
2023-04-15T22:09:10.651Z,57.52
2023-04-15T22:11:39.408Z,59.35
2023-04-15T22:14:07.428Z,64.96
2023-04-15T22:16:35.361Z,67.60
2023-04-15T22:19:03.494Z,65.40
2023-04-15T22:21:31.979Z,63.21
2023-04-15T22:24:36.706Z,61.38
2023-04-15T22:26:47.849Z,58.83
2023-04-15T22:29:15.833Z,58.62
2023-04-15T22:31:43.883Z,60.12
2023-04-15T22:34:11.987Z,66.18
2023-04-15T22:36:39.876Z,68.60
2023-04-15T22:39:07.939Z,65.58
2023-04-15T22:41:36.510Z,63.47
2023-04-15T22:44:04.456Z,61.74
2023-04-15T22:46:32.422Z,60.37
2023-04-15T22:49:01.009Z,58.13
2023-04-15T22:51:29.290Z,58.18
2023-04-15T22:53:57.369Z,59.36
2023-04-15T22:56:25.554Z,62.69
2023-04-15T22:58:53.514Z,67.57
2023-04-15T23:01:21.466Z,66.07
2023-04-15T23:03:57.339Z,64.00
2023-04-15T23:06:30.348Z,62.36
2023-04-15T23:08:58.272Z,58.57
2023-04-15T23:11:26.158Z,58.67
2023-04-15T23:13:54.127Z,60.53
2023-04-15T23:16:22.455Z,64.98
2023-04-15T23:18:50.488Z,67.68
2023-04-15T23:21:18.352Z,65.43
2023-04-15T23:23:46.258Z,62.85
2023-04-15T23:26:14.277Z,61.61
2023-04-15T23:28:42.176Z,59.03
2023-04-15T23:31:11.343Z,59.40
2023-04-15T23:33:39.278Z,63.49
2023-04-15T23:36:07.578Z,64.95
2023-04-15T23:38:35.707Z,63.71
2023-04-15T23:41:03.649Z,63.02
2023-04-15T23:43:31.725Z,62.15
2023-04-15T23:45:59.599Z,62.02
2023-04-15T23:48:27.474Z,61.33
2023-04-15T23:50:55.408Z,58.06
2023-04-15T23:53:23.347Z,57.48
2023-04-15T23:55:51.413Z,59.18
2023-04-15T23:58:19.296Z,63.39
